createdAt,value
2022-10-11T04:30:38.187Z,101853.79
2022-10-11T04:33:06.321Z,101856.51
2022-10-11T04:52:25.905Z,101848.64
2022-10-11T04:54:54.619Z,101842.52
2022-10-11T04:57:24.229Z,101854.73
2022-10-11T04:59:52.349Z,101851.48
2022-10-11T05:16:18.325Z,101861.66
2022-10-11T07:02:36.667Z,101869.30
2022-10-11T07:38:47.875Z,101846.26
2022-10-11T07:41:16.738Z,101846.59
2022-10-11T07:43:46.778Z,101844.06
2022-10-11T07:46:16.519Z,101837.11
2022-10-11T07:48:44.554Z,101846.16
2022-10-11T07:51:20.915Z,101842.18
2022-10-11T07:53:54.401Z,101842.26
2022-10-11T07:56:27.525Z,101835.42
2022-10-11T07:59:00.314Z,101837.30
2022-10-11T08:01:32.559Z,101830.08
2022-10-11T08:04:28.040Z,101828.68
2022-10-11T08:07:21.044Z,101830.48
2022-10-11T08:09:50.411Z,101829.16
2022-10-11T08:12:33.017Z,101828.70
2022-10-11T08:15:02.978Z,101822.82
2022-10-11T08:18:24.189Z,101813.78
2022-10-11T08:21:00.174Z,101821.65
2022-10-11T08:23:28.553Z,101820.58
2022-10-11T08:25:58.298Z,101823.30
2022-10-11T08:28:26.582Z,101822.80
2022-10-11T08:31:11.235Z,101819.42
2022-10-11T08:47:44.772Z,101805.14
2022-10-11T08:50:22.698Z,101799.40
2022-10-11T08:53:08.300Z,101797.44
2022-10-11T08:55:59.506Z,101791.13
2022-10-11T08:59:15.785Z,101790.71
2022-10-11T09:01:59.209Z,101781.27
2022-10-11T09:04:27.914Z,101782.07
2022-10-11T09:07:46.417Z,101777.77
2022-10-11T09:10:48.836Z,101780.87
2022-10-11T09:17:41.418Z,101770.55
2022-10-11T09:20:38.276Z,101769.02
2022-10-11T09:23:38.047Z,101765.38
2022-10-11T09:26:30.922Z,101762.84
2022-10-11T09:29:58.330Z,101756.96
2022-10-11T09:32:36.158Z,101754.60
2022-10-11T09:35:33.259Z,101752.49
2022-10-11T09:39:07.887Z,101756.02
2022-10-11T09:41:48.456Z,101746.84
2022-10-11T09:44:47.264Z,101748.08
2022-10-11T09:47:28.287Z,101744.73
2022-10-11T09:50:04.516Z,101738.52
2022-10-11T09:52:33.914Z,101740.41
2022-10-11T09:55:03.104Z,101735.88
2022-10-11T09:57:56.029Z,101736.71
2022-10-11T10:00:57.399Z,101736.10
2022-10-11T10:03:32.558Z,101730.98
2022-10-11T10:06:17.615Z,101730.77
2022-10-11T10:08:47.805Z,101724.33
2022-10-11T10:11:18.353Z,101721.41
2022-10-11T10:13:56.498Z,101723.66
2022-10-11T10:16:32.105Z,101721.23
2022-10-11T10:19:17.661Z,101715.60
2022-10-11T10:21:53.264Z,101710.09
2022-10-11T10:24:38.760Z,101707.06
2022-10-11T10:27:26.900Z,101712.44
2022-10-11T10:30:13.838Z,101706.92
2022-10-11T10:33:09.241Z,101710.18
2022-10-11T10:36:06.275Z,101707.30
2022-10-11T10:38:52.380Z,101702.23
2022-10-11T10:41:21.993Z,101702.19
2022-10-11T10:43:59.459Z,101695.98
2022-10-11T10:47:16.167Z,101694.47
2022-10-11T10:50:07.420Z,101681.54
2022-10-11T10:53:20.645Z,101682.91
2022-10-11T10:55:59.591Z,101680.61
2022-10-11T10:58:40.315Z,101681.77
2022-10-11T11:01:32.352Z,101676.86
2022-10-11T11:04:32.419Z,101672.80
2022-10-11T11:07:43.991Z,101660.73
2022-10-11T11:11:14.169Z,101666.56
2022-10-11T11:14:36.463Z,101665.84
2022-10-11T11:17:23.708Z,101656.41
2022-10-11T11:20:43.908Z,101659.45
2022-10-11T11:23:46.180Z,101658.13
2022-10-11T11:26:44.411Z,101659.56
2022-10-11T11:29:55.767Z,101655.90
2022-10-11T11:33:12.360Z,101650.34
2022-10-11T11:35:53.690Z,101648.13
2022-10-11T11:38:51.665Z,101652.52
2022-10-11T11:41:28.597Z,101646.38
2022-10-11T11:44:05.967Z,101644.38
2022-10-11T11:46:42.814Z,101646.73
2022-10-11T11:49:23.534Z,101644.91
2022-10-11T11:51:53.183Z,101642.47
2022-10-11T11:54:44.660Z,101640.60
2022-10-11T11:57:36.278Z,101634.73
2022-10-11T12:00:13.948Z,101635.38
2022-10-11T12:03:09.954Z,101640.30
2022-10-11T12:05:39.284Z,101636.77
2022-10-11T12:08:32.536Z,101633.84
2022-10-11T12:11:02.608Z,101634.55
2022-10-11T12:13:40.956Z,101637.23
2022-10-11T12:16:16.132Z,101636.61
2022-10-11T12:18:52.361Z,101632.63
2022-10-11T12:21:35.103Z,101632.41
2022-10-11T12:25:18.268Z,101632.40
2022-10-11T12:28:00.285Z,101624.60
2022-10-11T12:30:47.256Z,101622.38
2022-10-11T12:34:08.639Z,101621.11
2022-10-11T12:36:42.127Z,101621.63
2022-10-11T12:39:19.837Z,101615.27
2022-10-11T12:41:49.005Z,101615.36
2022-10-11T12:44:29.000Z,101612.42
2022-10-11T12:47:00.126Z,101612.95
2022-10-11T12:49:43.750Z,101612.02
2022-10-11T12:52:18.179Z,101615.33
2022-10-11T12:55:32.549Z,101613.24
2022-10-11T12:58:49.137Z,101608.59
2022-10-11T13:01:25.055Z,101608.06
2022-10-11T13:04:12.492Z,101608.06
2022-10-11T13:07:06.806Z,101602.60
2022-10-11T13:09:45.316Z,101602.77
2022-10-11T13:12:27.475Z,101595.95
2022-10-11T13:15:08.135Z,101606.49
2022-10-11T13:18:15.802Z,101608.00
2022-10-11T13:21:41.469Z,101592.95
2022-10-11T13:25:09.813Z,101600.38
2022-10-11T16:35:21.116Z,101650.08
2022-10-11T16:37:48.401Z,101651.02
2022-10-11T16:40:17.224Z,101652.61
2022-10-11T16:42:46.206Z,101653.48
2022-10-11T16:45:15.979Z,101656.14
2022-10-11T16:47:43.953Z,101652.16
2022-10-11T16:50:12.077Z,101657.20
2022-10-11T16:52:39.234Z,101655.89
2022-10-11T16:55:07.108Z,101658.89
2022-10-11T16:57:37.272Z,101659.99
2022-10-11T17:00:08.168Z,101657.14
2022-10-11T17:02:42.759Z,101655.55
2022-10-11T17:05:29.725Z,101656.66
2022-10-11T17:07:58.317Z,101656.70
2022-10-11T17:10:38.653Z,101649.49
2022-10-11T17:13:07.014Z,101650.51
2022-10-11T17:15:36.478Z,101651.66
2022-10-11T17:18:07.056Z,101650.40
2022-10-11T17:20:46.111Z,101651.17
2022-10-11T17:23:13.338Z,101654.94
2022-10-11T17:25:47.861Z,101652.84
2022-10-11T17:28:17.878Z,101653.06
2022-10-11T17:30:57.380Z,101648.48
2022-10-11T17:33:26.285Z,101649.11
2022-10-11T17:35:57.815Z,101646.54
2022-10-11T17:38:27.101Z,101645.13
2022-10-11T17:41:05.797Z,101642.67
2022-10-11T17:43:36.729Z,101650.33
2022-10-11T17:46:06.771Z,101652.17
2022-10-11T17:48:38.864Z,101649.13
2022-10-11T17:51:10.214Z,101652.98
2022-10-11T17:53:39.859Z,101651.64
2022-10-11T17:56:15.621Z,101652.11
2022-10-11T17:58:43.711Z,101653.20
2022-10-11T18:01:15.848Z,101654.42
2022-10-11T18:03:49.700Z,101650.74
2022-10-11T18:06:17.211Z,101652.79
2022-10-11T18:08:44.799Z,101652.89
2022-10-11T18:11:19.085Z,101657.77
2022-10-11T18:13:55.506Z,101658.88
2022-10-11T18:16:27.546Z,101656.63
2022-10-11T18:19:05.428Z,101654.17
2022-10-11T18:21:35.154Z,101655.17
2022-10-11T18:24:07.339Z,101657.41
2022-10-11T18:26:42.514Z,101655.82
2022-10-11T18:29:11.928Z,101664.46
2022-10-11T18:31:40.529Z,101665.85
2022-10-11T18:34:10.232Z,101659.11
2022-10-11T18:36:38.346Z,101654.27
2022-10-11T18:39:21.333Z,101661.34
2022-10-11T18:41:52.753Z,101661.76
2022-10-11T18:44:19.942Z,101664.42
2022-10-11T18:46:47.919Z,101663.92
2022-10-11T18:49:15.240Z,101661.89
2022-10-11T18:51:44.769Z,101666.71
2022-10-11T18:54:16.719Z,101669.24
2022-10-11T18:56:47.604Z,101663.61
2022-10-11T18:59:17.687Z,101661.78
2022-10-11T19:01:47.482Z,101662.84
2022-10-11T19:04:15.482Z,101662.87
2022-10-11T19:06:54.009Z,101660.16
2022-10-11T19:09:47.791Z,101665.88
2022-10-11T19:12:48.524Z,101666.79
2022-10-11T19:15:16.278Z,101665.39
2022-10-11T19:17:45.870Z,101670.66
2022-10-11T19:20:14.285Z,101669.78
2022-10-11T19:22:41.474Z,101671.07
2022-10-11T19:25:18.967Z,101674.54
2022-10-11T19:27:59.010Z,101673.02
2022-10-11T19:30:26.629Z,101671.47
2022-10-11T19:32:55.226Z,101671.77
2022-10-11T19:35:22.501Z,101673.01
2022-10-11T19:37:49.847Z,101671.85
2022-10-11T19:40:17.104Z,101671.86
2022-10-11T19:42:44.383Z,101677.45
2022-10-11T19:45:11.684Z,101680.52
2022-10-11T19:47:38.871Z,101678.18
2022-10-11T19:50:07.055Z,101680.20
2022-10-11T19:52:34.596Z,101683.44
2022-10-11T19:55:02.091Z,101682.00
2022-10-11T19:57:29.721Z,101680.76
2022-10-11T20:00:00.133Z,101684.52
2022-10-11T20:02:27.386Z,101684.55
2022-10-11T20:04:54.696Z,101685.39
2022-10-11T20:07:22.032Z,101687.71
2022-10-11T20:09:49.222Z,101687.11
2022-10-11T20:12:16.490Z,101691.70
2022-10-11T20:14:49.933Z,101689.55
2022-10-11T20:17:42.802Z,101692.79
2022-10-11T20:20:10.393Z,101689.76
2022-10-11T20:22:37.497Z,101690.65
2022-10-11T20:25:11.876Z,101691.55
2022-10-11T20:27:47.866Z,101694.80
2022-10-11T20:30:15.387Z,101691.56
2022-10-11T20:32:42.607Z,101696.02
2022-10-11T20:35:09.954Z,101692.04
2022-10-11T20:37:38.254Z,101694.70
2022-10-11T20:40:07.764Z,101693.46
2022-10-11T20:42:40.638Z,101692.58
2022-10-11T20:45:08.269Z,101696.88
2022-10-11T20:47:35.807Z,101696.72
2022-10-11T20:50:03.821Z,101697.63
2022-10-11T20:52:36.421Z,101696.21
2022-10-11T20:55:03.782Z,101698.29
2022-10-11T20:57:31.489Z,101697.79
2022-10-11T21:00:04.570Z,101698.33
2022-10-11T21:02:35.047Z,101696.62
2022-10-11T21:05:07.753Z,101691.64
2022-10-11T21:07:35.392Z,101693.23
2022-10-11T21:10:08.801Z,101696.80
2022-10-11T21:12:37.556Z,101695.92
2022-10-11T21:15:05.561Z,101701.84
2022-10-11T21:17:32.694Z,101698.83
2022-10-11T21:20:05.535Z,101700.99
2022-10-11T21:22:33.337Z,101704.08
2022-10-11T21:25:00.884Z,101701.60
2022-10-11T21:27:30.554Z,101706.06
2022-10-11T21:29:59.185Z,101703.41
2022-10-11T21:32:26.868Z,101704.33
2022-10-11T21:34:54.024Z,101705.60
2022-10-11T21:37:21.157Z,101707.05
2022-10-11T21:39:48.400Z,101706.90
2022-10-11T21:42:15.451Z,101708.34
2022-10-11T21:44:43.208Z,101707.84
2022-10-11T21:47:10.435Z,101704.23
2022-10-11T21:49:40.490Z,101706.09
2022-10-11T21:52:14.786Z,101706.61
2022-10-11T21:54:42.145Z,101708.06
2022-10-11T21:57:09.397Z,101710.58
2022-10-11T21:59:36.583Z,101710.69
2022-10-11T22:02:03.915Z,101706.98
2022-10-11T22:04:31.099Z,101707.12
2022-10-11T22:06:58.488Z,101705.91
2022-10-11T22:09:27.896Z,101708.59
2022-10-11T22:11:56.235Z,101713.13
2022-10-11T22:14:24.401Z,101715.33
2022-10-11T22:19:52.970Z,101719.90
2022-10-11T22:22:21.754Z,101722.35
2022-10-11T22:24:50.326Z,101726.79
2022-10-11T22:27:18.971Z,101726.39
2022-10-11T22:29:47.327Z,101728.27
2022-10-11T22:32:15.778Z,101727.31
2022-10-11T22:34:44.511Z,101730.34
2022-10-11T22:37:13.000Z,101728.22
2022-10-11T22:39:41.533Z,101728.94
2022-10-11T22:42:10.113Z,101727.33
2022-10-11T22:44:38.890Z,101729.48
2022-10-11T22:47:07.317Z,101728.77
2022-10-11T22:49:35.810Z,101730.02
2022-10-11T22:52:04.418Z,101730.55
2022-10-11T22:54:32.870Z,101730.36
2022-10-11T22:57:01.362Z,101731.63
2022-10-11T22:59:29.869Z,101730.73
2022-10-11T23:01:58.664Z,101731.80
2022-10-11T23:04:28.178Z,101729.69
2022-10-11T23:06:57.281Z,101733.50
2022-10-11T23:09:29.168Z,101730.66
2022-10-11T23:11:58.275Z,101733.90
2022-10-11T23:14:26.947Z,101737.80
2022-10-11T23:16:55.553Z,101738.01
2022-10-11T23:19:24.019Z,101741.25
2022-10-11T23:21:52.453Z,101742.16
2022-10-11T23:24:20.990Z,101737.81
2022-10-11T23:26:49.440Z,101739.72
2022-10-11T23:29:17.980Z,101741.16
2022-10-11T23:31:48.442Z,101739.91
2022-10-11T23:34:17.023Z,101741.55
2022-10-11T23:36:45.586Z,101742.14
2022-10-11T23:39:16.106Z,101741.97
2022-10-11T23:41:44.625Z,101745.21
2022-10-11T23:44:13.102Z,101751.54
2022-10-11T23:46:41.846Z,101754.46
2022-10-11T23:49:10.495Z,101755.58
2022-10-11T23:51:39.478Z,101761.66
2022-10-11T23:54:08.048Z,101758.98
2022-10-11T23:56:36.577Z,101758.60
2022-10-11T23:59:05.235Z,101755.40
